Time;durP1;ratioP1;P1;durP2;ratioP2;P2;SDS_P1;SDS_P2;PMS_P1;PMS_P2;Temp;Humidity;BMP_temperature;BMP_pressure;BME280_temperature;BME280_humidity;BME280_pressure;Samples;Min_cycle;Max_cycle;Signal;HPM_P1;HPM_P2
2023/08/17 00:01:20;;;;;;;;;;;;;;;;;;5092000;28;5051;-60
2023/08/17 00:03:45;;;;;;;;;;;;;;;;;;5078657;28;1324;-59
2023/08/17 00:06:10;;;;;;;;;;;;;;;;;;5084270;28;4952;-60
2023/08/17 00:08:36;;;;;;;;;;;;;;;;;;5073008;28;5127;-60
2023/08/17 00:11:01;;;;;;;;;;;;;;;;;;5079945;28;5157;-59
2023/08/17 00:13:26;;;;;;;;;;;;;;;;;;5076496;28;5150;-60
2023/08/17 00:15:51;;;;;;;;;;;;;;;;;;5079099;28;1565;-60
2023/08/17 00:18:17;;;;;;;;;;;;;;;;;;5076121;28;5019;-61
2023/08/17 00:20:42;;;;;;;;;;;;;;;;;;5079615;28;4866;-60
2023/08/17 00:23:07;;;;;;;;;;;;;;;;;;5075341;28;5024;-59
2023/08/17 00:25:32;;;;;;;;;;;;;;;;;;5076173;28;4912;-60
2023/08/17 00:27:58;;;;;;;;;;;;;;;;;;5072979;28;1261;-59
2023/08/17 00:30:23;;;;;;;;;;;;;;;;;;5086791;28;4851;-61
2023/08/17 00:32:48;;;;;;;;;;;;;;;;;;5077859;28;4876;-60
2023/08/17 00:35:13;;;;;;;;;;;;;;;;;;5083817;28;4435;-59
2023/08/17 00:37:39;;;;;;;;;;;;;;;;;;5089288;28;5198;-61
2023/08/17 00:40:04;;;;;;;;;;;;;;;;;;5081171;28;2276;-60
2023/08/17 00:42:30;;;;;;;;;;;;;;;;;;5084275;28;5055;-60
2023/08/17 00:44:55;;;;;;;;;;;;;;;;;;5081810;28;5011;-61
2023/08/17 00:47:20;;;;;;;;;;;;;;;;;;5072659;28;5082;-61
2023/08/17 00:49:46;;;;;;;;;;;;;;;;;;5076025;28;4895;-61
2023/08/17 00:52:11;;;;;;;;;;;;;;;;;;5074340;28;1224;-61
2023/08/17 00:54:36;;;;;;;;;;;;;;;;;;5077209;28;4741;-61
2023/08/17 00:57:03;;;;;;;;;;;;;;;;;;5063933;28;5059;-60
2023/08/17 00:59:28;;;;;;;;;;;;;;;;;;5083621;28;4852;-60
2023/08/17 01:01:54;;;;;;;;;;;;;;;;;;5079600;28;5053;-60
2023/08/17 01:04:19;;;;;;;;;;;;;;;;;;5074804;28;5155;-60
2023/08/17 01:06:44;;;;;;;;;;;;;;;;;;5078176;28;1909;-60
2023/08/17 01:09:09;;;;;;;;;;;;;;;;;;5071797;28;5185;-61
2023/08/17 01:11:42;;;;;;;;;;;;;;;;;;5075113;28;5221;-60
2023/08/17 01:14:23;;;;;;;;;;;;;;;;;;5078155;28;4977;-60
2023/08/17 01:16:50;;;;;;;;;;;;;;;;;;5078330;28;4965;-60
2023/08/17 01:19:18;;;;;;;;;;;;;;;;;;5072685;28;1362;-62
2023/08/17 01:21:44;;;;;;;;;;;;;;;;;;5077753;28;4987;-60
2023/08/17 01:24:10;;;;;;;;;;;;;;;;;;5076343;28;4949;-60
2023/08/17 01:26:35;;;;;;;;;;;;;;;;;;5076705;28;5138;-60
2023/08/17 01:29:01;;;;;;;;;;;;;;;;;;5077503;28;4439;-60
2023/08/17 01:31:36;;;;;;;;;;;;;;;;;;5082627;28;4943;-60
2023/08/17 01:34:05;;;;;;;;;;;;;;;;;;5084735;28;1123;-60
2023/08/17 01:36:38;;;;;;;;;;;;;;;;;;5074629;28;5324;-61
2023/08/17 01:39:03;;;;;;;;;;;;;;;;;;5083881;28;4955;-58
2023/08/17 01:41:28;;;;;;;;;;;;;;;;;;5083747;28;5064;-60
2023/08/17 01:43:54;;;;;;;;;;;;;;;;;;5080274;28;5019;-60
2023/08/17 01:46:19;;;;;;;;;;;;;;;;;;5075243;28;5047;-61
2023/08/17 01:48:44;;;;;;;;;;;;;;;;;;5074047;28;1138;-61
2023/08/17 01:51:10;;;;;;;;;;;;;;;;;;5079585;28;5015;-60
2023/08/17 01:53:35;;;;;;;;;;;;;;;;;;5095058;28;4888;-60
2023/08/17 01:56:02;;;;;;;;;;;;;;;;;;5098449;28;5202;-60
2023/08/17 01:58:27;;;;;;;;;;;;;;;;;;5097689;28;5047;-60
2023/08/17 02:00:52;;;;;;;;;;;;;;;;;;5089885;28;1142;-60
2023/08/17 02:03:17;;;;;;;;;;;;;;;;;;5091299;28;4972;-62
2023/08/17 02:05:46;;;;;;;;;;;;;;;;;;5099056;28;5112;-61
2023/08/17 02:08:11;;;;;;;;;;;;;;;;;;5099162;28;4447;-60
2023/08/17 02:10:36;;;;;;;;;;;;;;;;;;5090341;28;4613;-60
2023/08/17 02:13:02;;;;;;;;;;;;;;;;;;5103958;28;1162;-60
2023/08/17 02:15:27;;;;;;;;;;;;;;;;;;5100369;28;4995;-60
2023/08/17 02:17:52;;;;;;;;;;;;;;;;;;5101296;28;4389;-60
2023/08/17 02:20:17;;;;;;;;;;;;;;;;;;5100039;28;5076;-62
2023/08/17 02:22:43;;;;;;;;;;;;;;;;;;5093773;28;4850;-61
2023/08/17 02:25:08;;;;;;;;;;;;;;;;;;5104722;28;1163;-60
2023/08/17 02:27:34;;;;;;;;;;;;;;;;;;5097837;28;4894;-60
2023/08/17 02:29:59;;;;;;;;;;;;;;;;;;5104966;28;5008;-61
2023/08/17 02:32:24;;;;;;;;;;;;;;;;;;5098231;28;5137;-60
2023/08/17 02:34:49;;;;;;;;;;;;;;;;;;5100213;28;5039;-61
2023/08/17 02:37:15;;;;;;;;;;;;;;;;;;5100435;28;1210;-63
2023/08/17 02:39:40;;;;;;;;;;;;;;;;;;5100597;28;4879;-60
2023/08/17 02:42:05;;;;;;;;;;;;;;;;;;5108006;28;4422;-59
2023/08/17 02:44:30;;;;;;;;;;;;;;;;;;5098206;28;4992;-60
2023/08/17 02:46:56;;;;;;;;;;;;;;;;;;5102107;28;5160;-59
2023/08/17 02:49:21;;;;;;;;;;;;;;;;;;5099697;28;4840;-61
2023/08/17 02:51:46;;;;;;;;;;;;;;;;;;5098868;28;1135;-60
2023/08/17 02:54:12;;;;;;;;;;;;;;;;;;5098296;28;4932;-61
2023/08/17 02:56:37;;;;;;;;;;;;;;;;;;5086855;28;5110;-61
2023/08/17 02:59:02;;;;;;;;;;;;;;;;;;5104259;28;5541;-59
2023/08/17 03:01:29;;;;;;;;;;;;;;;;;;5098883;28;5065;-60
2023/08/17 03:03:54;;;;;;;;;;;;;;;;;;5101798;28;1088;-61
2023/08/17 03:06:19;;;;;;;;;;;;;;;;;;5097453;28;5008;-61
2023/08/17 03:08:44;;;;;;;;;;;;;;;;;;5078580;28;5110;-60
2023/08/17 03:11:10;;;;;;;;;;;;;;;;;;5100104;28;4964;-60
2023/08/17 03:13:35;;;;;;;;;;;;;;;;;;5099287;28;5082;-60
2023/08/17 03:16:00;;;;;;;;;;;;;;;;;;5101169;28;1315;-61
2023/08/17 03:18:25;;;;;;;;;;;;;;;;;;5089015;28;5006;-60
2023/08/17 03:20:51;;;;;;;;;;;;;;;;;;5095119;28;4814;-60
2023/08/17 03:23:16;;;;;;;;;;;;;;;;;;5090184;28;4813;-61
2023/08/17 03:25:41;;;;;;;;;;;;;;;;;;5100581;28;4869;-62
2023/08/17 03:28:07;;;;;;;;;;;;;;;;;;5090439;28;2002;-62
2023/08/17 03:30:32;;;;;;;;;;;;;;;;;;5095220;28;5098;-62
2023/08/17 03:32:57;;;;;;;;;;;;;;;;;;5079504;28;4970;-62
2023/08/17 03:35:22;;;;;;;;;;;;;;;;;;5096191;28;5037;-60
2023/08/17 03:37:48;;;;;;;;;;;;;;;;;;5093764;28;5103;-63
2023/08/17 03:40:13;;;;;;;;;;;;;;;;;;5098973;28;1100;-62
2023/08/17 03:42:38;;;;;;;;;;;;;;;;;;5094817;28;4947;-62
2023/08/17 03:45:04;;;;;;;;;;;;;;;;;;5096645;28;6117;-61
2023/08/17 03:47:29;;;;;;;;;;;;;;;;;;5089942;28;5059;-62
2023/08/17 03:49:54;;;;;;;;;;;;;;;;;;5101243;28;4683;-61
2023/08/17 03:52:20;;;;;;;;;;;;;;;;;;5100601;28;4480;-63
2023/08/17 03:54:45;;;;;;;;;;;;;;;;;;5099379;28;4923;-61
2023/08/17 03:57:11;;;;;;;;;;;;;;;;;;5085072;28;5130;-61
2023/08/17 03:59:36;;;;;;;;;;;;;;;;;;5100571;28;4918;-62
2023/08/17 04:02:02;;;;;;;;;;;;;;;;;;5103527;28;5114;-61
2023/08/17 04:04:27;;;;;;;;;;;;;;;;;;5104052;28;4995;-61
2023/08/17 04:06:52;;;;;;;;;;;;;;;;;;5101035;28;1933;-59
2023/08/17 04:09:17;;;;;;;;;;;;;;;;;;5102386;28;5036;-64
2023/08/17 04:11:43;;;;;;;;;;;;;;;;;;5103810;28;4987;-62
2023/08/17 04:14:08;;;;;;;;;;;;;;;;;;5108560;28;4848;-60
2023/08/17 04:16:34;;;;;;;;;;;;;;;;;;5094168;28;5005;-61
2023/08/17 04:18:59;;;;;;;;;;;;;;;;;;5097552;28;1096;-62
2023/08/17 04:21:24;;;;;;;;;;;;;;;;;;5094689;28;4817;-61
2023/08/17 04:23:50;;;;;;;;;;;;;;;;;;5092518;28;5093;-62
2023/08/17 04:26:15;;;;;;;;;;;;;;;;;;5094584;28;4494;-63
2023/08/17 04:28:40;;;;;;;;;;;;;;;;;;5094889;28;5019;-61
2023/08/17 04:31:06;;;;;;;;;;;;;;;;;;5095238;28;1241;-61
2023/08/17 04:33:31;;;;;;;;;;;;;;;;;;5094809;28;4504;-60
2023/08/17 04:35:56;;;;;;;;;;;;;;;;;;5099435;28;4919;-61
2023/08/17 04:38:21;;;;;;;;;;;;;;;;;;5098574;28;5221;-62
2023/08/17 04:40:47;;;;;;;;;;;;;;;;;;5095623;28;4933;-62
2023/08/17 04:43:12;;;;;;;;;;;;;;;;;;5097473;28;1183;-60
2023/08/17 04:45:37;;;;;;;;;;;;;;;;;;5078715;28;4921;-61
2023/08/17 04:48:03;;;;;;;;;;;;;;;;;;5096106;28;4828;-60
2023/08/17 04:50:28;;;;;;;;;;;;;;;;;;5093129;28;4996;-61
2023/08/17 04:52:53;;;;;;;;;;;;;;;;;;5103803;28;5053;-61
2023/08/17 04:55:19;;;;;;;;;;;;;;;;;;5094543;28;5147;-64
2023/08/17 04:57:44;;;;;;;;;;;;;;;;;;5097505;28;1228;-62
2023/08/17 05:00:10;;;;;;;;;;;;;;;;;;5097939;28;4444;-61
2023/08/17 05:02:39;;;;;;;;;;;;;;;;;;5100112;28;4641;-61
2023/08/17 05:05:04;;;;;;;;;;;;;;;;;;5099171;28;4830;-60
2023/08/17 05:07:30;;;;;;;;;;;;;;;;;;5103628;28;4688;-62
2023/08/17 05:09:55;;;;;;;;;;;;;;;;;;5096105;28;1096;-62
2023/08/17 05:12:20;;;;;;;;;;;;;;;;;;5098974;28;4779;-62
2023/08/17 05:14:45;;;;;;;;;;;;;;;;;;5099890;28;5036;-62
2023/08/17 05:17:11;;;;;;;;;;;;;;;;;;5085204;28;4796;-62
2023/08/17 05:19:38;;;;;;;;;;;;;;;;;;5084060;28;5095;-63
2023/08/17 05:22:03;;;;;;;;;;;;;;;;;;5081359;28;3380;-62
2023/08/17 05:24:28;;;;;;;;;;;;;;;;;;5070189;28;5131;-62
2023/08/17 05:26:53;;;;;;;;;;;;;;;;;;5086437;28;5153;-64
2023/08/17 05:29:19;;;;;;;;;;;;;;;;;;5068433;28;4572;-63
2023/08/17 05:31:44;;;;;;;;;;;;;;;;;;5081432;28;4837;-62
2023/08/17 05:34:09;;;;;;;;;;;;;;;;;;5081946;28;1075;-62
2023/08/17 05:36:34;;;;;;;;;;;;;;;;;;5080960;28;4617;-63
2023/08/17 05:39:00;;;;;;;;;;;;;;;;;;5071857;28;4946;-62
2023/08/17 05:41:25;;;;;;;;;;;;;;;;;;5078416;28;5101;-63
2023/08/17 05:43:50;;;;;;;;;;;;;;;;;;5079964;28;4619;-62
2023/08/17 05:46:15;;;;;;;;;;;;;;;;;;5073062;28;1957;-63
2023/08/17 05:48:41;;;;;;;;;;;;;;;;;;5066160;28;4963;-62
2023/08/17 05:51:06;;;;;;;;;;;;;;;;;;5075776;28;4973;-62
2023/08/17 05:53:31;;;;;;;;;;;;;;;;;;5069791;28;5017;-62
2023/08/17 05:55:57;;;;;;;;;;;;;;;;;;5081902;28;4905;-62
2023/08/17 05:58:22;;;;;;;;;;;;;;;;;;5091883;28;4450;-63
2023/08/17 06:00:47;;;;;;;;;;;;;;;;;;5077001;28;1222;-61
2023/08/17 06:03:12;;;;;;;;;;;;;;;;;;5065522;28;5077;-63
2023/08/17 06:05:38;;;;;;;;;;;;;;;;;;5070852;28;4932;-57
2023/08/17 06:08:04;;;;;;;;;;;;;;;;;;5066878;28;4700;-59
2023/08/17 06:10:29;;;;;;;;;;;;;;;;;;5070511;28;4911;-56
2023/08/17 06:12:55;;;;;;;;;;;;;;;;;;5101466;28;1287;-58
2023/08/17 06:15:20;;;;;;;;;;;;;;;;;;5072109;28;5085;-56
2023/08/17 06:17:45;;;;;;;;;;;;;;;;;;5062471;28;4696;-57
2023/08/17 06:20:11;;;;;;;;;;;;;;;;;;5065573;28;4973;-58
2023/08/17 06:22:37;;;;;;;;;;;;;;;;;;5073995;28;4848;-59
2023/08/17 06:25:03;;;;;;;;;;;;;;;;;;5072168;28;1108;-58
2023/08/17 06:27:28;;;;;;;;;;;;;;;;;;5084886;28;4624;-57
2023/08/17 06:29:53;;;;;;;;;;;;;;;;;;5084795;28;5100;-57
2023/08/17 06:32:19;;;;;;;;;;;;;;;;;;5065777;28;5012;-58
2023/08/17 06:34:44;;;;;;;;;;;;;;;;;;5063747;28;5342;-58
2023/08/17 06:37:10;;;;;;;;;;;;;;;;;;5066192;28;3295;-57
2023/08/17 06:39:35;;;;;;;;;;;;;;;;;;5065155;28;4762;-58
2023/08/17 06:42:01;;;;;;;;;;;;;;;;;;5069773;28;4638;-59
2023/08/17 06:44:26;;;;;;;;;;;;;;;;;;5078567;28;5004;-58
2023/08/17 06:46:51;;;;;;;;;;;;;;;;;;5071065;28;5079;-58
2023/08/17 06:49:16;;;;;;;;;;;;;;;;;;5071375;28;1236;-58
2023/08/17 06:51:42;;;;;;;;;;;;;;;;;;5086986;28;4825;-58
2023/08/17 06:54:07;;;;;;;;;;;;;;;;;;5082259;28;5240;-57
2023/08/17 06:56:32;;;;;;;;;;;;;;;;;;5064755;28;5328;-58
2023/08/17 06:58:57;;;;;;;;;;;;;;;;;;5077561;28;5067;-61
2023/08/17 07:01:23;;;;;;;;;;;;;;;;;;5064165;28;5071;-62
2023/08/17 07:03:48;;;;;;;;;;;;;;;;;;5066174;28;3240;-61
2023/08/17 07:06:13;;;;;;;;;;;;;;;;;;5068395;28;4913;-60
2023/08/17 07:08:39;;;;;;;;;;;;;;;;;;5071197;28;5013;-61
2023/08/17 07:11:05;;;;;;;;;;;;;;;;;;5071147;28;4872;-58
2023/08/17 07:13:30;;;;;;;;;;;;;;;;;;5079758;28;5205;-57
2023/08/17 07:15:56;;;;;;;;;;;;;;;;;;5074929;28;3256;-58
2023/08/17 07:18:21;;;;;;;;;;;;;;;;;;5071415;28;5092;-59
2023/08/17 07:20:46;;;;;;;;;;;;;;;;;;5079553;28;4876;-58
2023/08/17 07:23:11;;;;;;;;;;;;;;;;;;5081343;28;5103;-58
2023/08/17 07:25:37;;;;;;;;;;;;;;;;;;5072433;28;4485;-57
2023/08/17 07:28:02;;;;;;;;;;;;;;;;;;5079258;28;1270;-57
2023/08/17 07:30:27;;;;;;;;;;;;;;;;;;5077501;28;4822;-57
2023/08/17 07:32:53;;;;;;;;;;;;;;;;;;5077336;28;5301;-57
2023/08/17 07:35:18;;;;;;;;;;;;;;;;;;5077285;28;5086;-57
2023/08/17 07:37:43;;;;;;;;;;;;;;;;;;5070390;28;4964;-57
2023/08/17 07:40:09;;;;;;;;;;;;;;;;;;5079753;28;1135;-57
2023/08/17 07:42:34;;;;;;;;;;;;;;;;;;5080826;28;4624;-57
2023/08/17 07:44:59;;;;;;;;;;;;;;;;;;5082041;28;5264;-58
2023/08/17 07:47:24;;;;;;;;;;;;;;;;;;5066858;28;5135;-58
2023/08/17 07:49:50;;;;;;;;;;;;;;;;;;5075881;28;5096;-59
2023/08/17 07:52:15;;;;;;;;;;;;;;;;;;5086192;28;1205;-58
2023/08/17 07:54:41;;;;;;;;;;;;;;;;;;5094788;28;5055;-57
2023/08/17 07:57:06;;;;;;;;;;;;;;;;;;5084862;28;4518;-58
2023/08/17 07:59:31;;;;;;;;;;;;;;;;;;5088100;28;5040;-58
2023/08/17 08:01:56;;;;;;;;;;;;;;;;;;5088118;28;5047;-59
2023/08/17 08:04:22;;;;;;;;;;;;;;;;;;5085977;28;5018;-57
2023/08/17 08:06:47;;;;;;;;;;;;;;;;;;5086466;28;1906;-57
2023/08/17 08:09:12;;;;;;;;;;;;;;;;;;5080310;28;5052;-57
2023/08/17 08:11:37;;;;;;;;;;;;;;;;;;5080430;28;4499;-57
2023/08/17 08:14:03;;;;;;;;;;;;;;;;;;5080231;28;5017;-56
2023/08/17 08:16:31;;;;;;;;;;;;;;;;;;5079299;28;5047;-57
2023/08/17 08:18:56;;;;;;;;;;;;;;;;;;5086578;28;1100;-58
2023/08/17 08:21:21;;;;;;;;;;;;;;;;;;5087891;28;5270;-57
2023/08/17 08:23:46;;;;;;;;;;;;;;;;;;5084079;28;5052;-57
2023/08/17 08:26:12;;;;;;;;;;;;;;;;;;5087226;28;4974;-59
2023/08/17 08:28:37;;;;;;;;;;;;;;;;;;5087489;28;5163;-57
2023/08/17 08:31:05;;;;;;;;;;;;;;;;;;5088095;28;1184;-57
2023/08/17 08:33:30;;;;;;;;;;;;;;;;;;5084317;28;4820;-57
2023/08/17 08:35:55;;;;;;;;;;;;;;;;;;5088079;28;4633;-58
2023/08/17 08:38:21;;;;;;;;;;;;;;;;;;5091616;28;4961;-57
2023/08/17 08:40:46;;;;;;;;;;;;;;;;;;5086267;28;4803;-58
2023/08/17 08:43:12;;;;;;;;;;;;;;;;;;5086555;28;1123;-58
2023/08/17 08:45:37;;;;;;;;;;;;;;;;;;5091090;28;5237;-56
2023/08/17 08:48:03;;;;;;;;;;;;;;;;;;5084462;28;4482;-57
2023/08/17 08:50:28;;;;;;;;;;;;;;;;;;5077097;28;4741;-57
2023/08/17 08:52:58;;;;;;;;;;;;;;;;;;5095968;28;4687;-56
2023/08/17 08:55:23;;;;;;;;;;;;;;;;;;5066317;28;5036;-57
2023/08/17 08:57:49;;;;;;;;;;;;;;;;;;5068104;28;1197;-57
2023/08/17 09:00:14;;;;;;;;;;;;;;;;;;5075458;28;5073;-57
2023/08/17 09:02:39;;;;;;;;;;;;;;;;;;5071873;28;4953;-57
2023/08/17 09:05:06;;;;;;;;;;;;;;;;;;5070462;28;4997;-57
2023/08/17 09:07:31;;;;;;;;;;;;;;;;;;5069542;28;4527;-58
2023/08/17 09:09:56;;;;;;;;;;;;;;;;;;5065706;28;1197;-58
2023/08/17 09:12:21;;;;;;;;;;;;;;;;;;5076989;28;4442;-59
2023/08/17 09:14:47;;;;;;;;;;;;;;;;;;5070650;28;5157;-58
2023/08/17 09:17:12;;;;;;;;;;;;;;;;;;5060955;28;4634;-58
2023/08/17 09:19:37;;;;;;;;;;;;;;;;;;5061759;28;4904;-58
2023/08/17 09:22:03;;;;;;;;;;;;;;;;;;5075344;28;3286;-63
2023/08/17 09:24:35;;;;;;;;;;;;;;;;;;5052210;28;4674;-65
2023/08/17 09:27:00;;;;;;;;;;;;;;;;;;5065464;28;4638;-68
2023/08/17 09:29:25;;;;;;;;;;;;;;;;;;5057085;28;5098;-70
2023/08/17 09:31:51;;;;;;;;;;;;;;;;;;5066451;28;5091;-67
2023/08/17 09:34:16;;;;;;;;;;;;;;;;;;5055273;28;3496;-69
2023/08/17 09:36:41;;;;;;;;;;;;;;;;;;5062617;28;4795;-66
2023/08/17 09:39:07;;;;;;;;;;;;;;;;;;5058319;28;4512;-67
2023/08/17 09:41:39;;;;;;;;;;;;;;;;;;5074224;28;4535;-64
2023/08/17 09:44:05;;;;;;;;;;;;;;;;;;5056542;28;5115;-65
2023/08/17 09:46:30;;;;;;;;;;;;;;;;;;5079322;28;5114;-64
2023/08/17 09:48:56;;;;;;;;;;;;;;;;;;5062480;28;3440;-66
2023/08/17 09:51:21;;;;;;;;;;;;;;;;;;5060017;28;5075;-65
2023/08/17 09:53:51;;;;;;;;;;;;;;;;;;5050745;28;4786;-65
2023/08/17 09:56:16;;;;;;;;;;;;;;;;;;5035337;28;5038;-66
2023/08/17 09:58:41;;;;;;;;;;;;;;;;;;5039046;28;4902;-62
2023/08/17 10:01:07;;;;;;;;;;;;;;;;;;5040082;28;3375;-67
2023/08/17 10:03:35;;;;;;;;;;;;;;;;;;5040215;28;4988;-67
2023/08/17 10:06:12;;;;;;;;;;;;;;;;;;5040190;28;5129;-68
2023/08/17 10:08:44;;;;;;;;;;;;;;;;;;5040550;28;5197;-67
2023/08/17 10:11:10;;;;;;;;;;;;;;;;;;5038672;28;5348;-63
2023/08/17 10:13:37;;;;;;;;;;;;;;;;;;5037517;28;4922;-66
2023/08/17 10:16:08;;;;;;;;;;;;;;;;;;5043309;28;1443;-65
2023/08/17 10:18:49;;;;;;;;;;;;;;;;;;5077470;28;4632;-66
2023/08/17 10:21:17;;;;;;;;;;;;;;;;;;5060894;28;5009;-68
2023/08/17 10:23:43;;;;;;;;;;;;;;;;;;5059627;28;4651;-65
2023/08/17 10:26:08;;;;;;;;;;;;;;;;;;5071274;28;4492;-69
2023/08/17 10:28:34;;;;;;;;;;;;;;;;;;5044575;28;4821;-64
2023/08/17 10:30:59;;;;;;;;;;;;;;;;;;5059950;28;3347;-65
2023/08/17 10:33:24;;;;;;;;;;;;;;;;;;5058371;28;5076;-65
2023/08/17 10:35:50;;;;;;;;;;;;;;;;;;5051395;28;5163;-67
2023/08/17 10:38:15;;;;;;;;;;;;;;;;;;5058396;28;5163;-64
2023/08/17 10:40:41;;;;;;;;;;;;;;;;;;5043127;28;4475;-65
2023/08/17 10:43:06;;;;;;;;;;;;;;;;;;5059398;28;3401;-67
2023/08/17 10:45:34;;;;;;;;;;;;;;;;;;5046933;28;5042;-68
2023/08/17 10:48:05;;;;;;;;;;;;;;;;;;5039139;28;5272;-66
2023/08/17 10:50:30;;;;;;;;;;;;;;;;;;5046849;28;4869;-65
2023/08/17 10:52:56;;;;;;;;;;;;;;;;;;5033640;28;4955;-66
2023/08/17 10:55:40;;;;;;;;;;;;;;;;;;5037745;28;4948;-67
2023/08/17 10:58:08;;;;;;;;;;;;;;;;;;5043172;28;3421;-67
2023/08/17 11:00:33;;;;;;;;;;;;;;;;;;5040502;28;4687;-65
2023/08/17 11:03:11;;;;;;;;;;;;;;;;;;5044838;28;4489;-63
2023/08/17 11:05:37;;;;;;;;;;;;;;;;;;5045246;28;4957;-64
2023/08/17 11:08:03;;;;;;;;;;;;;;;;;;5042310;28;4542;-67
2023/08/17 11:10:29;;;;;;;;;;;;;;;;;;5029093;28;4549;-70
2023/08/17 11:12:59;;;;;;;;;;;;;;;;;;5042133;28;3312;-58
2023/08/17 11:15:48;;;;;;;;;;;;;;;;;;5033288;28;4476;-58
2023/08/17 11:18:13;;;;;;;;;;;;;;;;;;5043200;28;5037;-60
2023/08/17 11:20:39;;;;;;;;;;;;;;;;;;5048468;28;5084;-59
2023/08/17 11:23:04;;;;;;;;;;;;;;;;;;5044699;28;4852;-57
2023/08/17 11:25:31;;;;;;;;;;;;;;;;;;5043625;28;4701;-59
2023/08/17 11:27:56;;;;;;;;;;;;;;;;;;5064226;28;1937;-59
2023/08/17 11:30:25;;;;;;;;;;;;;;;;;;5043231;28;4841;-59
2023/08/17 11:32:51;;;;;;;;;;;;;;;;;;5045237;28;5072;-58
2023/08/17 11:35:16;;;;;;;;;;;;;;;;;;5028932;28;5019;-53
2023/08/17 11:37:41;;;;;;;;;;;;;;;;;;5045553;28;5330;-62
2023/08/17 11:40:09;;;;;;;;;;;;;;;;;;5047877;28;3486;-65
2023/08/17 11:42:35;;;;;;;;;;;;;;;;;;5044607;28;4549;-67
2023/08/17 11:45:01;;;;;;;;;;;;;;;;;;5048673;28;4651;-64
2023/08/17 11:47:26;;;;;;;;;;;;;;;;;;5042461;28;4710;-64
2023/08/17 11:49:58;;;;;;;;;;;;;;;;;;5060520;28;5037;-66
2023/08/17 11:52:25;;;;;;;;;;;;;;;;;;5053498;28;4466;-61
2023/08/17 11:54:50;;;;;;;;;;;;;;;;;;5083900;28;4902;-61
2023/08/17 11:57:16;;;;;;;;;;;;;;;;;;5088221;28;4690;-62
2023/08/17 11:59:41;;;;;;;;;;;;;;;;;;5070997;28;5074;-65
2023/08/17 12:02:06;;;;;;;;;;;;;;;;;;5088677;28;4533;-58
2023/08/17 12:04:33;;;;;;;;;;;;;;;;;;5088043;28;5176;-58
2023/08/17 12:06:58;;;;;;;;;;;;;;;;;;5071294;28;1914;-58
2023/08/17 12:09:23;;;;;;;;;;;;;;;;;;5086340;28;5268;-57
2023/08/17 12:11:53;;;;;;;;;;;;;;;;;;5088388;28;4755;-57
2023/08/17 12:14:18;;;;;;;;;;;;;;;;;;5069643;28;4973;-57
2023/08/17 12:16:48;;;;;;;;;;;;;;;;;;5059694;28;4908;-57
2023/08/17 12:19:13;;;;;;;;;;;;;;;;;;5100868;28;1377;-57
2023/08/17 12:21:40;;;;;;;;;;;;;;;;;;5090215;28;4882;-57
2023/08/17 12:24:05;;;;;;;;;;;;;;;;;;5089089;28;4973;-57
2023/08/17 12:26:32;;;;;;;;;;;;;;;;;;5084508;28;4516;-57
2023/08/17 12:28:57;;;;;;;;;;;;;;;;;;5084468;28;5007;-57
2023/08/17 12:31:23;;;;;;;;;;;;;;;;;;5086170;28;5276;-57
2023/08/17 12:33:48;;;;;;;;;;;;;;;;;;5085870;28;1134;-58
2023/08/17 12:36:14;;;;;;;;;;;;;;;;;;5081593;28;4515;-57
2023/08/17 12:38:44;;;;;;;;;;;;;;;;;;5087084;28;5007;-57
2023/08/17 12:41:09;;;;;;;;;;;;;;;;;;5087698;28;4446;-57
2023/08/17 12:43:35;;;;;;;;;;;;;;;;;;5084824;28;5134;-57
2023/08/17 12:46:00;;;;;;;;;;;;;;;;;;5086420;28;1906;-58
2023/08/17 12:48:25;;;;;;;;;;;;;;;;;;5082736;28;4991;-59
2023/08/17 12:50:50;;;;;;;;;;;;;;;;;;5087642;28;4446;-58
2023/08/17 12:53:16;;;;;;;;;;;;;;;;;;5084109;28;4455;-58
2023/08/17 12:55:41;;;;;;;;;;;;;;;;;;5087381;28;5009;-58
2023/08/17 12:58:09;;;;;;;;;;;;;;;;;;5087144;28;1131;-58
2023/08/17 13:00:35;;;;;;;;;;;;;;;;;;5087142;28;4944;-57
2023/08/17 13:03:00;;;;;;;;;;;;;;;;;;5086236;28;5208;-57
2023/08/17 13:05:25;;;;;;;;;;;;;;;;;;5086486;28;5044;-58
2023/08/17 13:07:51;;;;;;;;;;;;;;;;;;5088585;28;4471;-57
2023/08/17 13:10:16;;;;;;;;;;;;;;;;;;5085010;28;1068;-57
2023/08/17 13:12:41;;;;;;;;;;;;;;;;;;5079929;28;4374;-57
2023/08/17 13:15:07;;;;;;;;;;;;;;;;;;5087046;28;4479;-57
2023/08/17 13:17:32;;;;;;;;;;;;;;;;;;5085014;28;5090;-57
2023/08/17 13:19:57;;;;;;;;;;;;;;;;;;5086843;28;4455;-57
2023/08/17 13:22:22;;;;;;;;;;;;;;;;;;5082140;28;5470;-56
2023/08/17 13:24:48;;;;;;;;;;;;;;;;;;5092761;28;1182;-57
2023/08/17 13:27:13;;;;;;;;;;;;;;;;;;5085766;28;4429;-59
2023/08/17 13:29:39;;;;;;;;;;;;;;;;;;5082435;28;5094;-59
2023/08/17 13:32:05;;;;;;;;;;;;;;;;;;5086957;28;5002;-61
2023/08/17 13:34:30;;;;;;;;;;;;;;;;;;5082004;28;5080;-62
2023/08/17 13:36:55;;;;;;;;;;;;;;;;;;5079670;28;1430;-59
2023/08/17 13:39:21;;;;;;;;;;;;;;;;;;5077352;28;4553;-63
2023/08/17 13:41:46;;;;;;;;;;;;;;;;;;5085635;28;4491;-55
2023/08/17 13:44:11;;;;;;;;;;;;;;;;;;5086787;28;5019;-56
2023/08/17 13:46:36;;;;;;;;;;;;;;;;;;5081295;28;5128;-56
2023/08/17 13:49:02;;;;;;;;;;;;;;;;;;5064526;28;1880;-56
2023/08/17 13:51:27;;;;;;;;;;;;;;;;;;5086240;28;5026;-56
2023/08/17 13:53:52;;;;;;;;;;;;;;;;;;5086456;28;5047;-56
2023/08/17 13:56:18;;;;;;;;;;;;;;;;;;5084944;28;5223;-56
2023/08/17 13:58:43;;;;;;;;;;;;;;;;;;5086440;28;4711;-56
2023/08/17 14:01:09;;;;;;;;;;;;;;;;;;5086717;28;1132;-56
2023/08/17 14:03:34;;;;;;;;;;;;;;;;;;5079273;28;4865;-57
2023/08/17 14:06:00;;;;;;;;;;;;;;;;;;5080165;28;5067;-56
2023/08/17 14:08:25;;;;;;;;;;;;;;;;;;5077191;28;5206;-56
2023/08/17 14:10:50;;;;;;;;;;;;;;;;;;5076909;28;5145;-56
2023/08/17 14:13:15;;;;;;;;;;;;;;;;;;5079053;28;3313;-56
2023/08/17 14:15:41;;;;;;;;;;;;;;;;;;5080150;28;4584;-56
2023/08/17 14:18:06;;;;;;;;;;;;;;;;;;5081703;28;4870;-55
2023/08/17 14:20:31;;;;;;;;;;;;;;;;;;5084571;28;5538;-56
2023/08/17 14:22:56;;;;;;;;;;;;;;;;;;5081474;28;5074;-56
2023/08/17 14:25:22;;;;;;;;;;;;;;;;;;5081616;28;5163;-57
2023/08/17 14:27:47;;;;;;;;;;;;;;;;;;5080246;28;3408;-56
2023/08/17 14:30:12;;;;;;;;;;;;;;;;;;5080473;28;5098;-56
2023/08/17 14:32:37;;;;;;;;;;;;;;;;;;5077133;28;4929;-56
2023/08/17 14:35:03;;;;;;;;;;;;;;;;;;5084496;28;5135;-56
2023/08/17 14:37:28;;;;;;;;;;;;;;;;;;5082942;28;5401;-56
2023/08/17 14:39:54;;;;;;;;;;;;;;;;;;5077707;28;3427;-56
2023/08/17 14:42:19;;;;;;;;;;;;;;;;;;5079745;28;5103;-56
2023/08/17 14:44:44;;;;;;;;;;;;;;;;;;5082652;28;5122;-56
2023/08/17 14:47:09;;;;;;;;;;;;;;;;;;5078875;28;5072;-55
2023/08/17 14:49:35;;;;;;;;;;;;;;;;;;5082250;28;4478;-56
2023/08/17 14:52:00;;;;;;;;;;;;;;;;;;5082562;28;3353;-56
2023/08/17 14:54:25;;;;;;;;;;;;;;;;;;5076877;28;5071;-56
2023/08/17 14:56:51;;;;;;;;;;;;;;;;;;5080871;28;5690;-56
2023/08/17 14:59:17;;;;;;;;;;;;;;;;;;5079243;28;5124;-55
2023/08/17 15:01:42;;;;;;;;;;;;;;;;;;5074901;28;5056;-55
2023/08/17 15:04:07;;;;;;;;;;;;;;;;;;5083898;28;3422;-56
2023/08/17 15:06:32;;;;;;;;;;;;;;;;;;5080183;28;5026;-55
2023/08/17 15:08:58;;;;;;;;;;;;;;;;;;5078976;28;4988;-56
2023/08/17 15:11:23;;;;;;;;;;;;;;;;;;5080527;28;4948;-55
2023/08/17 15:13:49;;;;;;;;;;;;;;;;;;5082256;28;4898;-55
2023/08/17 15:16:14;;;;;;;;;;;;;;;;;;5075384;28;3348;-55
2023/08/17 15:18:39;;;;;;;;;;;;;;;;;;5080465;28;4464;-56
2023/08/17 15:21:05;;;;;;;;;;;;;;;;;;5075802;28;4754;-56
2023/08/17 15:23:30;;;;;;;;;;;;;;;;;;5077915;28;5029;-56
2023/08/17 15:25:55;;;;;;;;;;;;;;;;;;5078925;28;4607;-56
2023/08/17 15:28:21;;;;;;;;;;;;;;;;;;5079595;28;5115;-56
2023/08/17 15:30:49;;;;;;;;;;;;;;;;;;5081664;28;3406;-56
2023/08/17 15:33:14;;;;;;;;;;;;;;;;;;5083789;28;4669;-56
2023/08/17 15:35:40;;;;;;;;;;;;;;;;;;5083836;28;5064;-57
2023/08/17 15:38:05;;;;;;;;;;;;;;;;;;5085503;28;5097;-56
2023/08/17 15:40:30;;;;;;;;;;;;;;;;;;5081770;28;5023;-55
2023/08/17 15:42:56;;;;;;;;;;;;;;;;;;5082059;28;1135;-56
2023/08/17 15:45:21;;;;;;;;;;;;;;;;;;5085482;28;5079;-56
2023/08/17 15:47:47;;;;;;;;;;;;;;;;;;5083141;28;4895;-55
2023/08/17 15:50:12;;;;;;;;;;;;;;;;;;5087701;28;5081;-56
2023/08/17 15:52:37;;;;;;;;;;;;;;;;;;5086011;28;5313;-55
2023/08/17 15:55:03;;;;;;;;;;;;;;;;;;5081470;28;4904;-55
2023/08/17 15:57:28;;;;;;;;;;;;;;;;;;5084172;28;4837;-55
2023/08/17 15:59:53;;;;;;;;;;;;;;;;;;5100136;27;5128;-55
2023/08/17 16:02:18;;;;;;;;;;;;;;;;;;5085299;28;5145;-65
2023/08/17 16:04:44;;;;;;;;;;;;;;;;;;5082631;28;5072;-68
2023/08/17 16:07:09;;;;;;;;;;;;;;;;;;5081216;28;3344;-68
2023/08/17 16:09:34;;;;;;;;;;;;;;;;;;5087720;28;5095;-69
2023/08/17 16:12:00;;;;;;;;;;;;;;;;;;5082242;28;5116;-69
2023/08/17 16:14:26;;;;;;;;;;;;;;;;;;5083738;28;4900;-65
2023/08/17 16:16:51;;;;;;;;;;;;;;;;;;5071779;28;4984;-52
2023/08/17 16:19:17;;;;;;;;;;;;;;;;;;5082950;28;3462;-54
2023/08/17 16:21:42;;;;;;;;;;;;;;;;;;5086468;28;4932;-53
2023/08/17 16:24:07;;;;;;;;;;;;;;;;;;5091983;28;5135;-55
2023/08/17 16:26:33;;;;;;;;;;;;;;;;;;5089853;28;4472;-53
2023/08/17 16:28:58;;;;;;;;;;;;;;;;;;5088413;28;5106;-52
2023/08/17 16:31:23;;;;;;;;;;;;;;;;;;5059925;28;4511;-51
2023/08/17 16:33:48;;;;;;;;;;;;;;;;;;5083471;28;3218;-54
2023/08/17 16:36:14;;;;;;;;;;;;;;;;;;5080987;28;5111;-53
2023/08/17 16:38:39;;;;;;;;;;;;;;;;;;5083575;28;5069;-53
2023/08/17 16:41:04;;;;;;;;;;;;;;;;;;5061943;28;5170;-53
2023/08/17 16:43:30;;;;;;;;;;;;;;;;;;5087500;28;5083;-53
2023/08/17 16:45:55;;;;;;;;;;;;;;;;;;5092046;28;1491;-53
2023/08/17 16:48:20;;;;;;;;;;;;;;;;;;5081773;28;5044;-53
2023/08/17 16:50:45;;;;;;;;;;;;;;;;;;5094307;28;5120;-53
2023/08/17 16:53:11;;;;;;;;;;;;;;;;;;5093542;28;5128;-53